createdAt,value
2019-05-03T00:00:02.789Z,1011.45
2019-05-03T00:05:02.925Z,1011.36
2019-05-03T00:10:03.561Z,1011.38
2019-05-03T00:15:03.122Z,1011.46
2019-05-03T00:20:02.604Z,1011.41
2019-05-03T00:25:05.949Z,1011.46
2019-05-03T00:30:02.925Z,1011.46
2019-05-03T00:35:02.600Z,1011.52
2019-05-03T00:40:03.254Z,1011.44
2019-05-03T00:45:02.784Z,1011.48
2019-05-03T00:50:03.228Z,1011.46
2019-05-03T00:55:15.237Z,1011.45
2019-05-03T01:00:03.288Z,1011.44
2019-05-03T01:05:03.023Z,1011.45
2019-05-03T01:10:02.772Z,1011.41
2019-05-03T01:15:02.574Z,1011.46
2019-05-03T01:20:03.116Z,1011.5
2019-05-03T01:25:03.019Z,1011.49
2019-05-03T01:30:03.110Z,1011.56
2019-05-03T01:35:03.384Z,1011.62
2019-05-03T01:40:03.014Z,1011.65
2019-05-03T01:45:02.572Z,1011.62
2019-05-03T01:50:03.137Z,1011.67
2019-05-03T01:55:03.421Z,1011.68
2019-05-03T02:00:02.990Z,1011.69
2019-05-03T02:05:02.611Z,1011.72
2019-05-03T02:10:03.147Z,1011.79
2019-05-03T02:15:02.615Z,1011.82
2019-05-03T02:20:03.105Z,1011.88
2019-05-03T02:25:02.644Z,1011.9
2019-05-03T02:30:03.448Z,1011.95
2019-05-03T02:35:02.976Z,1011.99
2019-05-03T02:40:04.178Z,1012.07
2019-05-03T02:45:02.979Z,1012.06
2019-05-03T02:50:02.467Z,1012.11
2019-05-03T02:55:02.941Z,1012.2
2019-05-03T03:00:04.906Z,1012.14
2019-05-03T03:05:02.600Z,1012.17
2019-05-03T03:10:05.288Z,1012.13
2019-05-03T03:15:05.907Z,1012.08
2019-05-03T03:20:05.203Z,1012.17
2019-05-03T03:25:05.296Z,1012.19
2019-05-03T03:30:02.949Z,1012.17
2019-05-03T03:35:06.134Z,1012.2
2019-05-03T03:40:02.426Z,1012.25
2019-05-03T03:45:05.812Z,1012.3
2019-05-03T03:50:02.690Z,1012.34
2019-05-03T03:55:06.175Z,1012.44
2019-05-03T04:00:05.278Z,1012.44
2019-05-03T04:05:05.490Z,1012.57
2019-05-03T04:10:05.585Z,1012.64
2019-05-03T04:15:05.742Z,1012.68
2019-05-03T04:20:05.095Z,1012.68
2019-05-03T04:25:02.601Z,1012.71
2019-05-03T04:30:05.873Z,1012.77
2019-05-03T04:35:05.163Z,1012.82
2019-05-03T04:40:02.963Z,1012.87
2019-05-03T04:45:05.638Z,1012.93
2019-05-03T04:50:05.630Z,1012.87
2019-05-03T04:55:06.349Z,1013.07
2019-05-03T05:00:06.068Z,1013.14
2019-05-03T05:05:05.830Z,1013.21
2019-05-03T05:10:04.975Z,1013.2
2019-05-03T05:15:05.127Z,1013.28
2019-05-03T05:20:02.747Z,1013.31
2019-05-03T05:25:04.527Z,1013.26
2019-05-03T05:30:04.564Z,1013.29
2019-05-03T05:35:05.118Z,1013.35
2019-05-03T05:40:02.668Z,1013.49
2019-05-03T05:45:04.935Z,1013.48
2019-05-03T05:50:02.540Z,1013.56
2019-05-03T05:55:04.609Z,1013.56
2019-05-03T06:00:04.939Z,1013.6
2019-05-03T06:05:02.430Z,1013.69
2019-05-03T06:10:02.878Z,1013.72
2019-05-03T06:15:04.738Z,1013.71
2019-05-03T06:20:05.291Z,1013.72
2019-05-03T06:25:06.125Z,1013.71
2019-05-03T06:30:04.680Z,1013.8
2019-05-03T06:35:04.933Z,1013.75
2019-05-03T06:40:05.821Z,1013.76
2019-05-03T06:45:08.253Z,1013.69
2019-05-03T06:50:02.643Z,1013.76
2019-05-03T06:55:06.411Z,1013.7
2019-05-03T07:00:05.213Z,1013.64
2019-05-03T07:05:04.976Z,1013.61
2019-05-03T07:10:02.595Z,1013.62
2019-05-03T07:15:05.134Z,1013.66
2019-05-03T07:20:04.622Z,1013.69
2019-05-03T07:25:04.676Z,1013.72
2019-05-03T07:30:04.849Z,1013.77
2019-05-03T07:35:04.499Z,1013.83
2019-05-03T07:40:04.732Z,1013.89
2019-05-03T07:45:04.957Z,1013.81
2019-05-03T07:50:02.557Z,1013.81
2019-05-03T07:55:04.638Z,1013.75
2019-05-03T08:00:04.925Z,1013.72
2019-05-03T08:05:02.822Z,1013.82
2019-05-03T08:10:05.429Z,1013.89
2019-05-03T08:15:03.031Z,1013.8
2019-05-03T08:20:02.567Z,1013.83
2019-05-03T08:25:03.099Z,1013.86
2019-05-03T08:30:04.571Z,1013.85
2019-05-03T08:35:04.777Z,1013.9
2019-05-03T08:40:05.151Z,1013.91
2019-05-03T08:45:04.536Z,1013.81
2019-05-03T08:50:02.877Z,1013.77
2019-05-03T08:55:05.250Z,1013.7
2019-05-03T09:00:02.824Z,1013.69
2019-05-03T09:05:05.148Z,1013.54
2019-05-03T09:10:02.752Z,1013.5
2019-05-03T09:15:04.770Z,1013.64
2019-05-03T09:20:05.112Z,1013.52
2019-05-03T09:25:04.842Z,1013.56
2019-05-03T09:30:02.387Z,1013.49
2019-05-03T09:35:02.852Z,1013.48
2019-05-03T09:40:04.502Z,1013.41
2019-05-03T09:45:04.882Z,1013.47
2019-05-03T09:50:02.415Z,1013.46
2019-05-03T09:55:05.147Z,1013.44
2019-05-03T10:00:04.744Z,1013.44
2019-05-03T10:05:03.483Z,1013.5
2019-05-03T10:10:02.976Z,1013.42
2019-05-03T10:15:02.532Z,1013.4
2019-05-03T10:20:03.023Z,1013.43
2019-05-03T10:25:02.452Z,1013.47
2019-05-03T10:30:10.606Z,1013.5
2019-05-03T10:35:02.622Z,1013.53
2019-05-03T10:40:07.296Z,1013.51
2019-05-03T10:45:04.516Z,1013.32
2019-05-03T10:50:04.708Z,1013.31
2019-05-03T10:55:05.274Z,1013.4
2019-05-03T11:00:04.963Z,1013.27
2019-05-03T11:05:02.505Z,1013.2
2019-05-03T11:10:05.175Z,1013.16
2019-05-03T11:15:02.775Z,1013.09
2019-05-03T11:20:05.186Z,1013.08
2019-05-03T11:25:02.748Z,1012.96
2019-05-03T11:30:04.910Z,1012.91
2019-05-03T11:35:04.446Z,1012.95
2019-05-03T11:40:04.995Z,1012.88
2019-05-03T11:45:02.559Z,1012.83
2019-05-03T11:50:02.999Z,1012.85
2019-05-03T11:55:02.670Z,1012.66
2019-05-03T12:00:05.263Z,1012.72
2019-05-03T12:05:04.890Z,1012.72
2019-05-03T12:10:02.610Z,1012.69
2019-05-03T12:15:04.340Z,1012.71
2019-05-03T12:20:03.571Z,1012.73
2019-05-03T12:25:09.386Z,1012.7
2019-05-03T12:30:04.897Z,1012.6
2019-05-03T12:35:02.504Z,1012.46
2019-05-03T12:40:02.949Z,1012.54
2019-05-03T12:45:04.557Z,1012.57
2019-05-03T12:50:05.114Z,1012.58
2019-05-03T12:55:04.569Z,1012.54
2019-05-03T13:00:02.271Z,1012.44
2019-05-03T13:05:01.914Z,1012.41
2019-05-03T13:10:02.564Z,1012.44
2019-05-03T13:15:04.930Z,1012.34
2019-05-03T13:20:01.784Z,1012.43
2019-05-03T13:25:02.374Z,1012.33
2019-05-03T13:30:05.211Z,1012.29
2019-05-03T13:35:02.700Z,1012.27
2019-05-03T13:40:03.238Z,1012.17
2019-05-03T13:45:04.736Z,1012.22
2019-05-03T13:50:03.394Z,1012.14
2019-05-03T13:55:02.851Z,1012.14
2019-05-03T14:00:03.360Z,1012.1
2019-05-03T14:05:04.864Z,1012.06
2019-05-03T14:10:02.643Z,1012.01
2019-05-03T14:15:03.183Z,1012.0
2019-05-03T14:20:02.522Z,1011.98
2019-05-03T14:25:04.581Z,1012.03
2019-05-03T14:30:05.314Z,1011.99
2019-05-03T14:35:02.869Z,1011.96
2019-05-03T14:40:04.992Z,1011.94
2019-05-03T14:45:04.487Z,1011.94
2019-05-03T14:50:05.343Z,1011.97
2019-05-03T14:55:06.477Z,1011.89
2019-05-03T15:00:03.658Z,1011.88
2019-05-03T15:05:05.382Z,1011.87
2019-05-03T15:10:03.004Z,1011.85
2019-05-03T15:15:02.425Z,1011.91
2019-05-03T15:20:02.977Z,1011.9
2019-05-03T15:25:02.385Z,1011.88
2019-05-03T15:30:04.726Z,1011.8
2019-05-03T15:35:04.692Z,1011.79
2019-05-03T15:40:05.984Z,1011.82
2019-05-03T15:45:05.082Z,1011.86
2019-05-03T15:50:45.172Z,1011.73
2019-05-03T15:55:04.581Z,1011.73
2019-05-03T16:00:03.147Z,1011.7
2019-05-03T16:05:02.549Z,1011.67
2019-05-03T16:10:04.672Z,1011.66
2019-05-03T16:15:04.684Z,1011.67
2019-05-03T16:20:05.030Z,1011.74
2019-05-03T16:25:02.593Z,1011.65
2019-05-03T16:30:04.542Z,1011.68
2019-05-03T16:35:04.493Z,1011.68
2019-05-03T16:40:05.083Z,1011.71
2019-05-03T16:45:02.903Z,1011.74
2019-05-03T16:50:04.760Z,1011.71
2019-05-03T16:55:02.912Z,1011.71
2019-05-03T17:00:03.330Z,1011.76
2019-05-03T17:05:04.780Z,1011.74
2019-05-03T17:10:04.874Z,1011.69
2019-05-03T17:15:02.647Z,1011.67
2019-05-03T17:20:03.306Z,1011.67
2019-05-03T17:25:04.305Z,1011.62
2019-05-03T17:30:04.504Z,1011.61
2019-05-03T17:35:03.041Z,1011.65
2019-05-03T17:40:02.493Z,1011.61
2019-05-03T17:45:02.992Z,1011.6
2019-05-03T17:50:02.433Z,1011.58
2019-05-03T17:55:04.915Z,1011.53
2019-05-03T18:00:01.716Z,1011.54
2019-05-03T18:05:05.185Z,1011.51
2019-05-03T18:10:04.734Z,1011.52
2019-05-03T18:15:03.227Z,1011.52
2019-05-03T18:20:04.478Z,1011.49
2019-05-03T18:25:04.962Z,1011.48
2019-05-03T18:30:04.658Z,1011.45
2019-05-03T18:35:04.879Z,1011.49
2019-05-03T18:40:02.671Z,1011.48
2019-05-03T18:45:04.588Z,1011.54
2019-05-03T18:50:04.321Z,1011.59
2019-05-03T18:55:04.439Z,1011.57
2019-05-03T19:00:07.752Z,1011.56
2019-05-03T19:05:01.890Z,1011.65
2019-05-03T19:10:05.010Z,1011.55
2019-05-03T19:15:02.492Z,1011.54
2019-05-03T19:20:04.705Z,1011.6
2019-05-03T19:25:03.368Z,1011.65
2019-05-03T19:30:04.696Z,1011.62
2019-05-03T19:35:05.036Z,1011.64
2019-05-03T19:40:02.576Z,1011.71
2019-05-03T19:45:03.107Z,1011.7
2019-05-03T19:50:02.527Z,1011.72
2019-05-03T19:55:04.813Z,1011.65
2019-05-03T20:00:05.487Z,1011.62
2019-05-03T20:05:02.260Z,1011.59
2019-05-03T20:10:02.763Z,1011.58
2019-05-03T20:15:05.189Z,1011.56
2019-05-03T20:20:04.674Z,1011.56
2019-05-03T20:25:04.641Z,1011.63
2019-05-03T20:30:03.209Z,1011.56
2019-05-03T20:35:12.953Z,1011.38
2019-05-03T20:40:04.865Z,1011.37
2019-05-03T20:45:05.221Z,1011.35
2019-05-03T20:50:04.711Z,1011.25
2019-05-03T20:55:04.745Z,1011.34
2019-05-03T21:00:04.519Z,1011.31
2019-05-03T21:05:04.318Z,1011.32
2019-05-03T21:10:02.869Z,1011.36
2019-05-03T21:15:04.955Z,1011.41
2019-05-03T21:20:02.563Z,1011.4
2019-05-03T21:25:02.158Z,1011.34
2019-05-03T21:30:01.771Z,1011.28
2019-05-03T21:35:03.171Z,1011.23
2019-05-03T21:40:02.657Z,1011.19
2019-05-03T21:45:04.696Z,1011.26
2019-05-03T21:50:04.681Z,1011.29
2019-05-03T21:55:05.359Z,1011.17
2019-05-03T22:00:02.999Z,1011.26
2019-05-03T22:05:02.418Z,1011.22
2019-05-03T22:10:04.884Z,1011.26
2019-05-03T22:15:02.496Z,1011.16
2019-05-03T22:20:04.786Z,1011.18
2019-05-03T22:25:04.728Z,1011.16
2019-05-03T22:30:03.290Z,1011.16
2019-05-03T22:35:02.723Z,1011.22
2019-05-03T22:40:05.227Z,1011.16
2019-05-03T22:45:04.640Z,1011.1
2019-05-03T22:50:05.279Z,1011.1
2019-05-03T22:55:04.661Z,1011.0
2019-05-03T23:00:07.563Z,1011.05
2019-05-03T23:05:04.653Z,1011.08
2019-05-03T23:10:03.255Z,1011.02
2019-05-03T23:15:04.436Z,1010.91
2019-05-03T23:20:04.651Z,1010.87
2019-05-03T23:25:05.119Z,1010.85
2019-05-03T23:30:04.852Z,1010.75
2019-05-03T23:35:02.394Z,1010.76
2019-05-03T23:40:04.437Z,1010.79
2019-05-03T23:45:04.708Z,1010.82
2019-05-03T23:50:03.321Z,1010.89
2019-05-03T23:55:02.743Z,1010.8
